createdAt,value
2022-08-16T00:01:33.898Z,25.80
2022-08-16T00:04:05.244Z,25.70
2022-08-16T00:06:34.235Z,25.60
2022-08-16T00:09:07.774Z,25.60
2022-08-16T00:11:41.361Z,25.60
2022-08-16T00:14:16.055Z,25.50
2022-08-16T00:17:01.134Z,25.50
2022-08-16T00:19:41.270Z,25.40
2022-08-16T00:22:12.779Z,25.40
2022-08-16T00:24:44.920Z,25.30
2022-08-16T00:27:17.470Z,25.20
2022-08-16T00:29:46.304Z,25.30
2022-08-16T00:32:18.121Z,25.30
2022-08-16T00:34:53.046Z,25.30
2022-08-16T00:37:25.167Z,25.30
2022-08-16T00:40:33.703Z,25.30
2022-08-16T00:43:12.108Z,25.30
2022-08-16T00:46:00.520Z,25.30
2022-08-16T00:48:40.345Z,25.30
2022-08-16T00:51:16.083Z,25.30
2022-08-16T00:53:47.323Z,25.30
2022-08-16T00:56:58.318Z,25.30
2022-08-16T00:59:18.201Z,25.30
2022-08-16T01:01:47.582Z,25.20
2022-08-16T01:04:29.177Z,25.20
2022-08-16T01:07:02.652Z,25.10
2022-08-16T01:09:34.333Z,25.10
2022-08-16T01:12:11.538Z,25.00
2022-08-16T01:14:59.764Z,25.00
2022-08-16T01:17:33.423Z,25.00
2022-08-16T01:20:23.819Z,25.00
2022-08-16T01:23:04.701Z,25.00
2022-08-16T01:25:45.631Z,25.00
2022-08-16T01:28:30.910Z,24.90
2022-08-16T01:31:01.245Z,25.00
2022-08-16T01:33:33.374Z,25.00
2022-08-16T01:36:11.892Z,25.00
2022-08-16T01:38:49.349Z,24.90
2022-08-16T01:41:31.310Z,25.00
2022-08-16T01:44:01.250Z,25.00
2022-08-16T01:46:39.538Z,25.00
2022-08-16T01:49:14.299Z,25.00
2022-08-16T01:51:47.748Z,24.90
2022-08-16T01:54:16.470Z,24.80
2022-08-16T01:57:00.971Z,24.70
2022-08-16T01:59:30.307Z,24.60
2022-08-16T02:01:59.864Z,24.60
2022-08-16T02:04:49.672Z,24.70
2022-08-16T02:07:23.510Z,24.70
2022-08-16T02:09:57.318Z,24.70
2022-08-16T02:12:49.387Z,24.70
2022-08-16T02:15:24.975Z,24.60
2022-08-16T02:17:55.019Z,24.60
2022-08-16T02:20:26.436Z,24.50
2022-08-16T02:22:57.962Z,24.40
2022-08-16T02:25:51.237Z,24.50
2022-08-16T02:28:20.004Z,24.40
2022-08-16T02:30:52.855Z,24.30
2022-08-16T02:33:24.714Z,24.30
2022-08-16T02:36:47.687Z,24.20
2022-08-16T02:39:04.473Z,24.10
2022-08-16T02:41:37.390Z,24.00
2022-08-16T02:44:13.855Z,23.90
2022-08-16T02:46:50.684Z,23.90
2022-08-16T02:49:32.219Z,23.80
2022-08-16T02:52:17.228Z,23.80
2022-08-16T02:54:55.227Z,23.70
2022-08-16T02:57:24.512Z,23.70
2022-08-16T02:59:54.700Z,23.60
2022-08-16T03:02:31.858Z,23.60
2022-08-16T03:05:01.691Z,23.50
2022-08-16T03:07:37.295Z,23.40
2022-08-16T03:10:11.920Z,23.40
2022-08-16T03:12:55.432Z,23.30
2022-08-16T03:15:27.701Z,23.20
2022-08-16T03:17:56.943Z,23.20
2022-08-16T03:20:32.268Z,23.10
2022-08-16T03:23:02.287Z,23.10
2022-08-16T03:25:44.083Z,23.10
2022-08-16T03:28:14.137Z,23.00
2022-08-16T03:30:47.704Z,23.00
2022-08-16T03:33:17.012Z,22.90
2022-08-16T03:35:46.760Z,22.90
2022-08-16T03:38:33.757Z,22.90
2022-08-16T03:41:24.347Z,22.80
2022-08-16T03:43:55.801Z,22.80
2022-08-16T03:46:47.259Z,22.80
2022-08-16T03:49:15.904Z,22.70
2022-08-16T03:51:45.535Z,22.70
2022-08-16T03:54:14.419Z,22.70
2022-08-16T03:56:57.734Z,22.70
2022-08-16T03:59:29.765Z,22.70
2022-08-16T04:02:01.302Z,22.70
2022-08-16T04:04:32.818Z,22.70
2022-08-16T04:07:04.182Z,22.70
2022-08-16T04:09:38.101Z,22.70
2022-08-16T04:12:11.063Z,22.70
2022-08-16T04:14:58.333Z,22.80
2022-08-16T04:17:29.328Z,22.90
2022-08-16T04:19:59.870Z,22.90
2022-08-16T04:22:29.605Z,22.90
2022-08-16T04:24:59.379Z,23.10
2022-08-16T04:27:31.770Z,23.20
2022-08-16T04:30:02.976Z,23.30
2022-08-16T04:32:33.825Z,23.40
2022-08-16T04:35:12.312Z,23.50
2022-08-16T04:37:42.634Z,23.50
2022-08-16T04:40:20.545Z,23.60
2022-08-16T04:42:54.839Z,23.80
2022-08-16T04:45:36.303Z,23.90
2022-08-16T04:48:07.830Z,24.20
2022-08-16T04:50:41.726Z,24.50
2022-08-16T04:53:12.264Z,24.80
2022-08-16T04:55:44.864Z,24.90
2022-08-16T04:58:45.857Z,25.20
2022-08-16T05:01:02.520Z,25.60
2022-08-16T05:03:41.820Z,25.70
2022-08-16T05:06:42.087Z,25.90
2022-08-16T05:09:14.457Z,26.10
2022-08-16T05:11:45.558Z,26.30
2022-08-16T05:14:45.445Z,26.30
2022-08-16T05:17:15.328Z,26.60
2022-08-16T05:19:46.729Z,26.80
2022-08-16T05:22:28.373Z,27.00
2022-08-16T05:24:57.161Z,27.30
2022-08-16T05:27:26.304Z,27.50
2022-08-16T05:30:01.080Z,27.70
2022-08-16T05:32:32.419Z,27.80
2022-08-16T05:35:11.281Z,27.90
2022-08-16T05:37:42.707Z,28.10
2022-08-16T05:40:14.499Z,28.30
2022-08-16T05:42:45.993Z,28.30
2022-08-16T05:45:22.003Z,28.20
2022-08-16T05:47:59.672Z,28.40
2022-08-16T05:50:34.396Z,28.60
2022-08-16T05:53:03.716Z,28.80
2022-08-16T05:55:35.194Z,28.70
2022-08-16T05:58:09.667Z,28.80
2022-08-16T06:00:58.604Z,28.80
2022-08-16T06:03:29.539Z,28.70
2022-08-16T06:06:03.273Z,28.80
2022-08-16T06:08:44.992Z,28.80
2022-08-16T06:11:15.573Z,28.90
2022-08-16T06:13:45.764Z,29.10
2022-08-16T06:16:18.028Z,29.00
2022-08-16T06:18:47.689Z,29.20
2022-08-16T06:21:22.733Z,29.40
2022-08-16T06:23:54.288Z,29.60
2022-08-16T06:26:24.206Z,29.80
2022-08-16T06:29:07.731Z,30.10
2022-08-16T06:31:46.906Z,30.40
2022-08-16T06:34:55.969Z,30.60
2022-08-16T06:37:08.746Z,30.90
2022-08-16T06:39:49.610Z,31.20
2022-08-16T06:42:19.861Z,31.30
2022-08-16T06:44:49.463Z,31.40
2022-08-16T06:47:18.500Z,31.60
2022-08-16T06:49:53.830Z,31.80
2022-08-16T06:53:00.047Z,32.20
2022-08-16T06:55:14.933Z,32.50
2022-08-16T06:57:44.444Z,32.80
2022-08-16T07:00:25.088Z,33.10
2022-08-16T07:02:54.598Z,33.10
2022-08-16T07:05:27.053Z,33.40
2022-08-16T07:07:57.439Z,33.70
2022-08-16T07:10:28.372Z,33.70
2022-08-16T07:13:03.930Z,34.00
2022-08-16T07:15:37.137Z,34.50
2022-08-16T07:18:20.264Z,34.70
2022-08-16T07:20:49.559Z,34.80
2022-08-16T07:23:20.949Z,35.00
2022-08-16T07:26:08.935Z,35.00
2022-08-16T07:28:38.858Z,34.70
2022-08-16T07:31:12.991Z,34.80
2022-08-16T07:33:52.156Z,35.10
2022-08-16T07:36:23.434Z,35.30
2022-08-16T07:38:53.653Z,35.40
2022-08-16T07:41:22.314Z,35.60
2022-08-16T07:43:51.208Z,35.90
2022-08-16T07:46:39.437Z,35.90
2022-08-16T07:49:11.348Z,35.80
2022-08-16T07:51:40.824Z,36.10
2022-08-16T07:54:20.592Z,35.90
2022-08-16T07:56:49.746Z,36.40
2022-08-16T07:59:19.400Z,36.30
2022-08-16T08:01:48.605Z,36.60
2022-08-16T08:04:22.892Z,37.10
2022-08-16T08:06:52.322Z,37.40
2022-08-16T08:09:22.347Z,37.70
2022-08-16T08:12:01.290Z,37.90
2022-08-16T08:14:34.268Z,38.20
2022-08-16T08:17:08.695Z,38.30
2022-08-16T08:19:40.351Z,38.40
2022-08-16T08:22:18.939Z,38.50
2022-08-16T08:24:49.942Z,38.40
2022-08-16T08:27:22.861Z,38.70
2022-08-16T08:30:49.461Z,38.50
2022-08-16T08:32:58.662Z,38.10
2022-08-16T08:35:29.659Z,38.40
2022-08-16T08:37:58.836Z,38.70
2022-08-16T08:40:31.847Z,39.10
2022-08-16T08:43:12.181Z,39.40
2022-08-16T08:45:48.495Z,39.30
2022-08-16T08:48:34.312Z,39.40
2022-08-16T08:51:09.198Z,39.40
2022-08-16T08:53:39.896Z,39.60
2022-08-16T08:56:23.039Z,39.50
2022-08-16T08:58:58.191Z,39.50
2022-08-16T09:01:36.534Z,39.60
2022-08-16T09:04:14.692Z,39.80
2022-08-16T09:06:46.981Z,40.00
2022-08-16T09:09:17.411Z,40.10
2022-08-16T09:11:53.756Z,40.00
2022-08-16T09:14:36.716Z,40.10
2022-08-16T09:17:12.045Z,39.80
2022-08-16T09:19:55.186Z,39.50
2022-08-16T09:22:28.340Z,39.40
2022-08-16T09:25:09.788Z,39.50
2022-08-16T09:27:57.003Z,39.70
2022-08-16T09:30:34.535Z,39.70
2022-08-16T09:33:14.603Z,40.00
2022-08-16T09:35:43.536Z,40.00
2022-08-16T09:38:31.308Z,40.00
2022-08-16T09:41:04.092Z,40.20
2022-08-16T09:43:58.169Z,40.30
2022-08-16T09:46:44.923Z,40.20
2022-08-16T09:49:15.658Z,40.20
2022-08-16T09:51:44.657Z,40.00
2022-08-16T09:54:17.024Z,39.80
2022-08-16T09:56:53.100Z,39.80
2022-08-16T09:59:30.824Z,39.70
2022-08-16T10:01:59.879Z,39.70
2022-08-16T10:04:35.680Z,39.60
2022-08-16T10:07:15.996Z,39.70
2022-08-16T10:09:54.912Z,39.60
2022-08-16T10:12:45.272Z,39.20
2022-08-16T10:15:21.105Z,39.20
2022-08-16T10:18:01.616Z,39.10
2022-08-16T10:20:35.442Z,38.70
2022-08-16T10:23:07.124Z,38.50
2022-08-16T10:27:17.613Z,38.50
2022-08-16T10:28:32.354Z,38.70
2022-08-16T10:31:16.911Z,38.70
2022-08-16T10:34:02.634Z,38.80
2022-08-16T10:36:38.564Z,38.60
2022-08-16T10:39:08.863Z,38.60
2022-08-16T10:41:37.953Z,38.60
2022-08-16T10:44:09.395Z,38.60
2022-08-16T10:46:41.968Z,38.50
2022-08-16T10:49:18.072Z,38.30
2022-08-16T10:52:03.186Z,38.40
2022-08-16T10:54:58.648Z,38.20
2022-08-16T10:57:24.944Z,38.10
2022-08-16T11:00:04.645Z,38.10
2022-08-16T11:02:59.696Z,38.10
2022-08-16T11:05:24.339Z,38.20
2022-08-16T11:07:54.002Z,38.10
2022-08-16T11:13:58.355Z,38.10
2022-08-16T11:16:26.865Z,37.90
2022-08-16T11:19:05.907Z,37.60
2022-08-16T11:24:39.487Z,37.50
2022-08-16T11:27:20.466Z,37.30
2022-08-16T11:29:52.819Z,37.40
2022-08-16T11:32:31.310Z,37.40
2022-08-16T11:35:14.013Z,37.40
2022-08-16T11:40:44.726Z,37.20
2022-08-16T11:43:16.933Z,37.10
2022-08-16T11:45:53.906Z,37.10
2022-08-16T11:48:24.935Z,37.00
2022-08-16T11:50:56.441Z,36.90
2022-08-16T11:53:26.032Z,36.80
2022-08-16T11:55:55.360Z,36.80
2022-08-16T11:58:26.232Z,36.60
2022-08-16T12:00:59.099Z,36.50
2022-08-16T12:03:35.111Z,36.40
2022-08-16T12:06:25.583Z,36.30
2022-08-16T12:09:02.088Z,36.30
2022-08-16T12:11:32.050Z,36.30
2022-08-16T12:14:04.582Z,36.30
2022-08-16T12:16:34.885Z,36.20
2022-08-16T12:19:04.778Z,36.10
2022-08-16T12:21:35.962Z,36.10
2022-08-16T12:24:24.598Z,36.10
2022-08-16T12:26:53.932Z,35.90
2022-08-16T12:29:25.792Z,35.80
2022-08-16T12:31:59.342Z,35.80
2022-08-16T12:34:30.691Z,35.80
2022-08-16T12:37:08.962Z,35.70
2022-08-16T12:39:47.163Z,35.60
2022-08-16T12:42:22.459Z,35.40
2022-08-16T12:45:03.519Z,35.30
2022-08-16T12:47:49.772Z,35.40
2022-08-16T12:50:20.741Z,35.30
2022-08-16T12:52:52.440Z,35.40
2022-08-16T12:55:23.948Z,35.30
2022-08-16T12:58:02.353Z,35.20
2022-08-16T13:00:33.960Z,34.90
2022-08-16T13:03:07.874Z,34.90
2022-08-16T13:05:47.748Z,34.80
2022-08-16T13:08:30.795Z,34.80
2022-08-16T13:11:00.617Z,34.70
2022-08-16T13:13:34.054Z,34.80
2022-08-16T13:16:15.217Z,34.80
2022-08-16T13:18:52.380Z,34.80
2022-08-16T13:21:24.221Z,34.90
2022-08-16T13:23:55.673Z,35.00
2022-08-16T13:26:26.295Z,34.90
2022-08-16T13:28:55.830Z,34.80
2022-08-16T13:31:26.260Z,34.70
2022-08-16T13:33:58.630Z,34.60
2022-08-16T13:39:18.422Z,34.40
2022-08-16T13:41:53.781Z,34.40
2022-08-16T13:44:48.915Z,34.30
2022-08-16T13:47:12.723Z,34.30
2022-08-16T13:49:43.350Z,34.20
2022-08-16T13:52:12.923Z,34.30
2022-08-16T13:54:43.180Z,34.20
2022-08-16T13:57:12.463Z,34.20
2022-08-16T13:59:43.413Z,34.20
2022-08-16T14:02:14.247Z,34.20
2022-08-16T14:04:44.610Z,34.20
2022-08-16T14:07:19.916Z,34.20
2022-08-16T14:09:55.418Z,34.20
2022-08-16T14:12:28.489Z,34.20
2022-08-16T14:14:59.207Z,34.20
2022-08-16T14:17:29.665Z,34.10
2022-08-16T14:20:14.562Z,34.10
2022-08-16T14:22:52.438Z,34.10
2022-08-16T14:25:25.830Z,34.00
2022-08-16T14:27:56.011Z,34.00
2022-08-16T14:30:25.708Z,33.90
2022-08-16T14:32:55.472Z,33.90
2022-08-16T14:35:29.401Z,33.90
2022-08-16T14:38:06.772Z,33.90
2022-08-16T14:40:42.656Z,33.80
2022-08-16T14:43:29.911Z,33.70
2022-08-16T14:46:00.105Z,33.70
2022-08-16T14:48:30.477Z,33.70
2022-08-16T14:51:01.980Z,33.60
2022-08-16T14:53:32.677Z,33.60
2022-08-16T14:56:02.977Z,33.60
2022-08-16T14:58:36.680Z,33.50
2022-08-16T15:01:09.999Z,33.50
2022-08-16T15:03:44.680Z,33.50
2022-08-16T15:06:14.586Z,33.40
2022-08-16T15:08:45.858Z,33.40
2022-08-16T15:11:16.761Z,33.50
2022-08-16T15:13:46.823Z,33.40
2022-08-16T15:16:16.352Z,33.40
2022-08-16T15:18:46.635Z,33.50
2022-08-16T15:21:15.839Z,33.40
2022-08-16T15:23:44.830Z,33.40
2022-08-16T15:26:29.570Z,33.30
2022-08-16T15:29:04.150Z,33.30
2022-08-16T15:31:37.636Z,33.30
2022-08-16T15:34:06.360Z,33.30
2022-08-16T15:36:35.150Z,33.20
2022-08-16T15:39:31.768Z,33.10
2022-08-16T15:42:11.092Z,33.10
2022-08-16T15:44:50.949Z,33.00
2022-08-16T15:47:26.300Z,33.00
2022-08-16T15:49:56.376Z,33.00
2022-08-16T15:52:30.229Z,32.90
2022-08-16T15:55:12.937Z,32.90
2022-08-16T15:57:54.023Z,32.90
2022-08-16T16:00:26.773Z,32.90
2022-08-16T16:03:18.286Z,33.00
2022-08-16T16:05:51.015Z,32.90
2022-08-16T16:08:25.156Z,32.90
2022-08-16T16:10:57.319Z,32.80
2022-08-16T16:13:30.241Z,32.80
2022-08-16T16:16:02.918Z,32.70
2022-08-16T16:18:34.373Z,32.70
2022-08-16T16:21:09.057Z,32.70
2022-08-16T16:23:53.818Z,32.70
2022-08-16T16:26:26.826Z,32.70
2022-08-16T16:29:07.683Z,32.60
2022-08-16T16:31:41.482Z,32.50
2022-08-16T16:34:13.342Z,32.50
2022-08-16T16:36:48.345Z,32.50
2022-08-16T16:39:17.592Z,32.50
2022-08-16T16:41:46.909Z,32.50
2022-08-16T16:44:18.234Z,32.50
2022-08-16T16:47:00.875Z,32.40
2022-08-16T16:49:29.799Z,32.40
2022-08-16T16:52:06.677Z,32.40
2022-08-16T16:54:36.828Z,32.40
2022-08-16T16:57:26.619Z,32.40
2022-08-16T16:59:56.535Z,32.30
2022-08-16T17:02:41.291Z,32.30
2022-08-16T17:05:14.554Z,32.30
2022-08-16T17:07:43.336Z,32.20
2022-08-16T17:10:13.357Z,32.20
2022-08-16T17:13:05.407Z,32.20
2022-08-16T17:15:37.460Z,32.20
2022-08-16T17:19:14.570Z,32.10
2022-08-16T17:20:59.376Z,32.10
2022-08-16T17:23:59.497Z,32.10
2022-08-16T17:26:17.022Z,32.00
2022-08-16T17:28:59.172Z,31.90
2022-08-16T17:31:41.015Z,31.90
2022-08-16T17:34:30.569Z,31.80
2022-08-16T17:37:05.404Z,31.80
2022-08-16T17:39:59.616Z,31.70
2022-08-16T17:42:26.846Z,31.70
2022-08-16T17:44:55.863Z,31.60
2022-08-16T17:47:26.320Z,31.50
2022-08-16T17:49:55.191Z,31.50
2022-08-16T17:52:24.140Z,31.30
2022-08-16T17:54:52.858Z,31.20
2022-08-16T17:57:21.529Z,31.10
2022-08-16T17:59:50.745Z,31.10
2022-08-16T18:02:43.565Z,31.00
2022-08-16T18:05:16.098Z,30.90
2022-08-16T18:07:47.371Z,30.80
2022-08-16T18:10:32.707Z,30.70
2022-08-16T18:13:02.985Z,30.60
2022-08-16T18:15:32.900Z,30.60
2022-08-16T18:18:03.149Z,30.50
2022-08-16T18:20:49.503Z,30.40
2022-08-16T18:23:21.914Z,30.30
2022-08-16T18:25:56.663Z,30.20
2022-08-16T18:28:27.395Z,30.20
2022-08-16T18:31:01.237Z,30.00
2022-08-16T18:33:43.748Z,30.00
2022-08-16T18:36:20.462Z,30.00
2022-08-16T18:38:51.675Z,30.00
2022-08-16T18:41:22.161Z,30.20
2022-08-16T18:44:23.466Z,30.40
2022-08-16T18:46:41.268Z,30.50
2022-08-16T18:49:17.853Z,30.80
2022-08-16T18:51:47.431Z,31.00
2022-08-16T18:54:19.171Z,31.20
2022-08-16T18:56:55.489Z,31.30
2022-08-16T18:59:28.865Z,31.40
2022-08-16T19:02:00.282Z,31.40
2022-08-16T19:04:48.012Z,31.60
2022-08-16T19:07:31.179Z,31.60
2022-08-16T19:10:02.400Z,31.70
2022-08-16T19:12:38.383Z,31.70
2022-08-16T19:15:15.960Z,31.70
2022-08-16T19:17:46.244Z,31.70
2022-08-16T19:20:20.154Z,31.70
2022-08-16T19:23:05.650Z,31.70
2022-08-16T19:25:48.968Z,31.80
2022-08-16T19:28:51.119Z,31.80
2022-08-16T19:31:17.291Z,31.80
2022-08-16T19:33:54.449Z,31.80
2022-08-16T19:36:32.019Z,31.70
2022-08-16T19:39:06.079Z,31.70
2022-08-16T19:41:37.246Z,31.50
2022-08-16T19:44:07.690Z,31.40
2022-08-16T19:46:38.094Z,31.20
2022-08-16T19:49:07.621Z,31.20
2022-08-16T19:51:37.966Z,31.10
2022-08-16T19:54:07.087Z,31.10
2022-08-16T19:56:35.712Z,30.90
2022-08-16T19:59:22.022Z,30.90
2022-08-16T20:01:52.774Z,30.90
2022-08-16T20:04:22.865Z,30.80
2022-08-16T20:06:53.739Z,30.80
2022-08-16T20:09:23.337Z,30.70
2022-08-16T20:11:54.756Z,30.30
2022-08-16T20:14:31.025Z,30.10
2022-08-16T20:17:01.111Z,29.90
2022-08-16T20:19:38.755Z,29.70
2022-08-16T20:22:51.834Z,29.50
2022-08-16T20:25:18.651Z,29.40
2022-08-16T20:27:47.943Z,29.20
2022-08-16T20:30:18.101Z,29.10
2022-08-16T20:32:48.639Z,29.00
2022-08-16T20:35:22.205Z,28.90
2022-08-16T20:37:52.373Z,28.90
2022-08-16T20:40:35.102Z,28.80
2022-08-16T20:43:14.237Z,28.80
2022-08-16T20:45:47.383Z,28.80
2022-08-16T20:48:16.682Z,28.70
2022-08-16T20:50:45.857Z,28.60
2022-08-16T20:53:15.952Z,28.50
2022-08-16T20:55:45.701Z,28.40
2022-08-16T20:58:14.756Z,28.40
2022-08-16T21:00:45.408Z,28.40
2022-08-16T21:03:15.138Z,28.30
2022-08-16T21:05:45.437Z,28.30
2022-08-16T21:08:50.547Z,28.30
2022-08-16T21:11:07.347Z,28.30
2022-08-16T21:13:40.600Z,28.40
2022-08-16T21:16:12.051Z,28.30
2022-08-16T21:18:41.049Z,28.30
2022-08-16T21:21:10.188Z,28.30
2022-08-16T21:23:40.807Z,28.30
2022-08-16T21:26:10.842Z,28.20
2022-08-16T21:28:43.181Z,28.20
2022-08-16T21:31:12.604Z,28.20
2022-08-16T21:33:42.658Z,28.20
2022-08-16T21:36:13.147Z,28.20
2022-08-16T21:38:43.230Z,28.20
2022-08-16T21:41:12.958Z,28.10
2022-08-16T21:43:41.915Z,28.10
2022-08-16T21:46:11.077Z,28.10
2022-08-16T21:48:40.837Z,28.00
2022-08-16T21:51:13.120Z,28.00
2022-08-16T21:53:44.828Z,28.00
2022-08-16T21:56:16.618Z,28.00
2022-08-16T21:58:46.327Z,28.00
2022-08-16T22:01:15.328Z,28.00
2022-08-16T22:03:44.361Z,28.00
2022-08-16T22:06:14.732Z,28.00
2022-08-16T22:08:49.104Z,28.10
2022-08-16T22:11:21.517Z,28.40
2022-08-16T22:13:58.356Z,28.80
2022-08-16T22:16:31.612Z,29.10
2022-08-16T22:19:00.938Z,29.50
2022-08-16T22:21:30.231Z,29.70
2022-08-16T22:24:00.568Z,29.90
2022-08-16T22:26:32.326Z,30.10
2022-08-16T22:29:02.175Z,30.10
2022-08-16T22:31:31.315Z,30.10
2022-08-16T22:34:01.943Z,30.20
2022-08-16T22:36:32.481Z,30.20
2022-08-16T22:39:07.623Z,30.20
2022-08-16T22:41:39.171Z,30.20
2022-08-16T22:44:09.551Z,30.20
2022-08-16T22:46:38.529Z,30.20
2022-08-16T22:49:08.448Z,30.20
2022-08-16T22:51:38.552Z,30.20
2022-08-16T22:54:44.233Z,30.20
2022-08-16T22:56:58.417Z,30.20
2022-08-16T22:59:28.690Z,30.20
2022-08-16T23:01:57.841Z,30.20
2022-08-16T23:04:26.530Z,30.20
2022-08-16T23:06:55.246Z,30.20
2022-08-16T23:09:25.741Z,30.20
2022-08-16T23:11:54.418Z,30.00
2022-08-16T23:14:23.295Z,29.90
2022-08-16T23:16:51.893Z,29.80
2022-08-16T23:19:20.629Z,29.70
2022-08-16T23:21:49.545Z,29.50
2022-08-16T23:24:20.663Z,29.10
2022-08-16T23:26:51.115Z,28.70
2022-08-16T23:29:25.202Z,28.40
2022-08-16T23:31:58.343Z,27.90
2022-08-16T23:34:29.061Z,27.60
2022-08-16T23:36:58.164Z,27.30
2022-08-16T23:39:27.101Z,27.20
2022-08-16T23:41:57.183Z,27.10
2022-08-16T23:44:55.358Z,27.00
2022-08-16T23:47:14.681Z,27.00
2022-08-16T23:49:58.643Z,27.10
2022-08-16T23:52:53.509Z,27.00
2022-08-16T23:55:19.881Z,27.00
2022-08-16T23:57:50.209Z,27.00
